createdAt,value
2018-07-14T00:01:40.442Z,99025.98
2018-07-14T00:04:11.114Z,99020.86
2018-07-14T00:06:41.625Z,99024.98
2018-07-14T00:09:12.091Z,99016.40
2018-07-14T00:11:43.025Z,99011.59
2018-07-14T00:14:14.357Z,99007.93
2018-07-14T00:16:44.981Z,99004.13
2018-07-14T00:19:15.572Z,99003.94
2018-07-14T00:21:45.701Z,99008.75
2018-07-14T00:24:16.286Z,98997.79
2018-07-14T00:26:46.790Z,98998.12
2018-07-14T00:29:17.278Z,98998.61
2018-07-14T00:31:48.196Z,99002.54
2018-07-14T00:34:19.363Z,99003.86
2018-07-14T00:36:49.944Z,99004.08
2018-07-14T00:39:20.624Z,99002.41
2018-07-14T00:41:51.429Z,99005.73
2018-07-14T00:44:21.826Z,99005.92
2018-07-14T00:47:12.309Z,99003.07
2018-07-14T00:49:42.966Z,99010.98
2018-07-14T00:52:13.491Z,99005.33
2018-07-14T00:54:44.020Z,99015.88
2018-07-14T00:57:14.522Z,99004.73
2018-07-14T00:59:45.205Z,99012.47
2018-07-14T01:02:16.628Z,99010.94
2018-07-14T01:04:47.123Z,99014.75
2018-07-14T01:07:17.585Z,99010.27
2018-07-14T01:09:47.621Z,99016.52
2018-07-14T01:12:17.976Z,99014.98
2018-07-14T01:14:59.614Z,99017.26
2018-07-14T01:17:30.766Z,99022.02
2018-07-14T01:20:02.029Z,99023.31
2018-07-14T01:22:32.760Z,99016.50
2018-07-14T01:25:03.285Z,99015.66
2018-07-14T01:27:33.260Z,99014.70
2018-07-14T01:30:03.826Z,99009.75
2018-07-14T01:32:34.407Z,99010.77
2018-07-14T01:40:04.639Z,99004.47
2018-07-14T01:42:35.287Z,99014.00
2018-07-14T01:45:05.882Z,99015.46
2018-07-14T01:47:56.099Z,99012.78
2018-07-14T01:50:26.590Z,99006.17
2018-07-14T01:52:56.603Z,98999.55
2018-07-14T01:55:27.185Z,99003.77
2018-07-14T01:57:57.168Z,99004.52
2018-07-14T02:00:47.534Z,99005.30
2018-07-14T02:03:18.081Z,99000.91
2018-07-14T02:05:48.620Z,99001.29
2018-07-14T02:08:19.216Z,99006.91
2018-07-14T02:10:49.723Z,99007.16
2018-07-14T02:13:20.094Z,99003.31
2018-07-14T02:15:51.450Z,99003.59
2018-07-14T02:18:22.283Z,99006.20
2018-07-14T02:20:52.778Z,99000.59
2018-07-14T02:23:23.292Z,98998.42
2018-07-14T02:25:53.815Z,99001.07
2018-07-14T02:28:43.702Z,98996.94
2018-07-14T02:31:14.244Z,98998.95
2018-07-14T02:33:44.734Z,98992.49
2018-07-14T02:36:15.199Z,98998.23
2018-07-14T02:38:45.791Z,98991.94
2018-07-14T02:41:16.276Z,98994.18
2018-07-14T02:43:47.076Z,98996.63
2018-07-14T02:46:18.374Z,99002.59
2018-07-14T02:48:48.800Z,99000.31
2018-07-14T02:51:19.316Z,98996.83
2018-07-14T02:53:49.847Z,99000.75
2018-07-14T02:56:20.345Z,98996.59
2018-07-14T02:58:51.052Z,99000.55
2018-07-14T03:01:21.616Z,99007.16
2018-07-14T03:03:52.566Z,98997.07
2018-07-14T03:06:24.509Z,99002.08
2018-07-14T03:08:54.963Z,99005.92
2018-07-14T03:11:25.628Z,99002.64
2018-07-14T03:13:56.216Z,99005.80
2018-07-14T03:16:26.641Z,99011.77
2018-07-14T03:19:17.218Z,99008.28
2018-07-14T03:21:47.651Z,99016.58
2018-07-14T03:24:18.075Z,99026.15
2018-07-14T03:26:48.684Z,99022.53
2018-07-14T03:29:19.504Z,99015.88
2018-07-14T03:31:50.310Z,99014.69
2018-07-14T03:34:21.763Z,99016.80
2018-07-14T03:36:52.241Z,99008.98
2018-07-14T03:39:22.235Z,99011.30
2018-07-14T03:41:52.973Z,99016.91
2018-07-14T03:44:23.819Z,99017.55
2018-07-14T03:46:55.127Z,99015.84
2018-07-14T03:49:25.674Z,99013.91
2018-07-14T03:52:15.922Z,99023.88
2018-07-14T03:54:47.669Z,99029.31
2018-07-14T03:57:18.545Z,99035.22
2018-07-14T03:59:49.029Z,99040.50
2018-07-14T04:02:19.577Z,99032.13
2018-07-14T04:04:50.081Z,99028.22
2018-07-14T04:07:20.616Z,99028.31
2018-07-14T04:09:50.547Z,99026.41
2018-07-14T04:12:21.204Z,99024.52
2018-07-14T04:14:52.522Z,99022.77
2018-07-14T04:17:23.318Z,99023.25
2018-07-14T04:19:53.780Z,99021.59
2018-07-14T04:22:24.521Z,99027.56
2018-07-14T04:24:55.088Z,99025.80
2018-07-14T04:27:25.671Z,99031.50
2018-07-14T04:29:56.169Z,99033.75
2018-07-14T04:37:26.221Z,99032.16
2018-07-14T04:39:56.804Z,99032.13
2018-07-14T04:42:27.477Z,99025.59
2018-07-14T04:45:18.232Z,99028.87
2018-07-14T04:47:48.910Z,99025.14
2018-07-14T04:50:19.489Z,99021.65
2018-07-14T04:52:50.084Z,99022.97
2018-07-14T04:55:20.582Z,99026.66
2018-07-14T04:57:51.121Z,99029.56
2018-07-14T05:00:21.887Z,99028.02
2018-07-14T05:07:51.960Z,99022.46
2018-07-14T05:10:22.562Z,99031.97
2018-07-14T05:12:53.083Z,99031.72
2018-07-14T05:15:23.716Z,99035.25
2018-07-14T05:17:54.445Z,99042.10
2018-07-14T05:20:25.126Z,99047.14
2018-07-14T05:27:55.192Z,99038.27
2018-07-14T05:30:25.835Z,99038.11
2018-07-14T05:33:16.750Z,99040.44
2018-07-14T05:35:48.455Z,99037.19
2018-07-14T05:38:19.143Z,99041.86
2018-07-14T05:40:49.593Z,99047.19
2018-07-14T05:43:20.078Z,99046.53
2018-07-14T05:45:50.641Z,99054.56
2018-07-14T05:48:20.989Z,99046.89
2018-07-14T05:50:51.826Z,99053.19
2018-07-14T05:53:22.720Z,99052.17
2018-07-14T05:55:53.990Z,99045.19
2018-07-14T05:58:24.681Z,99044.47
2018-07-14T06:00:55.767Z,99049.56
2018-07-14T06:03:26.619Z,99048.89
2018-07-14T06:05:57.271Z,99048.02
2018-07-14T06:08:27.770Z,99048.30
2018-07-14T06:10:59.565Z,99030.53
2018-07-14T06:13:30.907Z,99026.85
2018-07-14T06:21:01.236Z,99023.30
2018-07-14T06:23:31.234Z,99043.42
2018-07-14T06:26:01.863Z,99061.65
2018-07-14T06:28:32.468Z,99066.08
2018-07-14T06:31:22.977Z,99066.69
2018-07-14T06:33:53.928Z,99064.03
2018-07-14T06:36:24.699Z,99066.09
2018-07-14T06:38:55.232Z,99068.50
2018-07-14T06:41:26.083Z,99065.72
2018-07-14T06:44:07.124Z,99055.70
2018-07-14T06:46:37.794Z,99047.61
2018-07-14T06:49:08.674Z,99060.23
2018-07-14T06:51:39.413Z,99067.41
2018-07-14T06:54:10.370Z,99058.59
2018-07-14T06:56:41.404Z,99060.41
2018-07-14T06:59:32.359Z,99063.19
2018-07-14T07:02:02.496Z,99065.08
2018-07-14T07:04:34.618Z,99064.53
2018-07-14T07:07:06.866Z,99069.61
2018-07-14T07:09:37.546Z,99077.45
2018-07-14T07:12:08.379Z,99083.27
2018-07-14T07:19:38.841Z,99075.05
2018-07-14T07:22:09.715Z,99064.14
2018-07-14T07:24:41.579Z,99068.66
2018-07-14T07:27:14.198Z,99058.82
2018-07-14T07:29:44.891Z,99057.36
2018-07-14T07:32:15.576Z,99053.28
2018-07-14T07:35:11.132Z,99048.31
2018-07-14T07:37:44.758Z,99053.13
2018-07-14T07:40:15.410Z,99048.50
2018-07-14T07:42:45.665Z,99047.76
2018-07-14T07:45:16.956Z,99045.12
2018-07-14T07:47:48.373Z,99036.61
2018-07-14T07:50:21.188Z,99039.27
2018-07-14T07:52:51.931Z,99040.13
2018-07-14T07:55:22.091Z,99042.78
2018-07-14T07:57:52.874Z,99038.85
2018-07-14T08:00:23.657Z,99031.98
2018-07-14T08:02:54.744Z,99029.66
2018-07-14T08:05:25.401Z,99026.92
2018-07-14T08:07:56.871Z,99023.82
2018-07-14T08:10:28.456Z,99023.19
2018-07-14T08:13:00.035Z,99024.33
2018-07-14T08:15:31.642Z,99023.03
2018-07-14T08:18:02.647Z,99023.20
2018-07-14T08:20:34.005Z,99025.97
2018-07-14T08:23:04.487Z,99026.83
2018-07-14T08:25:35.480Z,99031.17
2018-07-14T08:28:08.400Z,99023.81
2018-07-14T08:30:41.209Z,99027.58
2018-07-14T08:33:12.645Z,99027.90
2018-07-14T08:35:45.595Z,99027.13
2018-07-14T08:38:17.151Z,99022.25
2018-07-14T08:40:57.960Z,99022.16
2018-07-14T08:43:28.759Z,99017.89
2018-07-14T08:45:59.734Z,99019.25
2018-07-14T08:48:50.940Z,99017.17
2018-07-14T08:51:21.855Z,99022.80
2018-07-14T08:53:54.263Z,99018.83
2018-07-14T08:56:25.006Z,99024.73
2018-07-14T08:58:55.795Z,99019.95
2018-07-14T09:01:26.808Z,99017.34
2018-07-14T09:03:58.124Z,99012.77
2018-07-14T09:06:30.014Z,99013.84
2018-07-14T09:09:00.813Z,99005.62
2018-07-14T09:11:33.232Z,99004.89
2018-07-14T09:14:04.229Z,99011.34
2018-07-14T09:16:34.970Z,99021.79
2018-07-14T09:19:05.792Z,99011.71
2018-07-14T09:21:37.498Z,99009.34
2018-07-14T09:24:09.621Z,99007.16
2018-07-14T09:26:40.236Z,99004.14
2018-07-14T09:29:11.069Z,98998.70
2018-07-14T09:31:41.762Z,99001.13
2018-07-14T09:34:12.597Z,99001.58
2018-07-14T09:36:42.640Z,98999.72
2018-07-14T09:39:13.295Z,98996.06
2018-07-14T09:41:43.700Z,98992.25
2018-07-14T09:44:15.209Z,98982.13
2018-07-14T09:46:46.027Z,98980.81
2018-07-14T09:49:17.068Z,98976.17
2018-07-14T09:51:47.913Z,98969.88
2018-07-14T09:54:18.819Z,98966.59
2018-07-14T09:56:49.449Z,98965.89
2018-07-14T10:04:20.256Z,98959.91
2018-07-14T10:06:51.400Z,98960.08
2018-07-14T10:09:23.646Z,98964.23
2018-07-14T10:11:55.073Z,98964.77
2018-07-14T10:14:25.686Z,98960.54
2018-07-14T10:16:56.704Z,98957.44
2018-07-14T10:19:28.991Z,98955.75
2018-07-14T10:22:00.935Z,98960.61
2018-07-14T10:24:34.160Z,98964.33
2018-07-14T10:27:05.865Z,98954.45
2018-07-14T10:29:36.924Z,98952.36
2018-07-14T10:32:07.982Z,98953.25
2018-07-14T10:34:40.239Z,98946.66
2018-07-14T10:37:12.055Z,98932.28
2018-07-14T10:39:44.813Z,98926.11
2018-07-14T10:42:16.525Z,98922.75
2018-07-14T10:44:47.324Z,98918.92
2018-07-14T10:47:18.931Z,98916.79
2018-07-14T10:49:50.940Z,98921.05
2018-07-14T10:52:57.109Z,98914.46
2018-07-14T10:55:28.107Z,98908.59
2018-07-14T10:57:59.754Z,98904.52
2018-07-14T11:00:30.443Z,98915.14
2018-07-14T11:03:01.288Z,98908.94
2018-07-14T11:05:31.874Z,98908.01
2018-07-14T11:08:03.044Z,98906.86
2018-07-14T11:10:36.182Z,98895.70
2018-07-14T11:13:08.146Z,98893.50
2018-07-14T11:20:39.210Z,98897.63
2018-07-14T11:23:10.264Z,98889.09
2018-07-14T11:25:41.315Z,98890.47
2018-07-14T11:28:19.226Z,98883.52
2018-07-14T11:30:51.363Z,98868.84
2018-07-14T11:33:32.974Z,98873.74
2018-07-14T11:36:03.598Z,98867.87
2018-07-14T11:38:36.904Z,98864.09
2018-07-14T11:48:54.999Z,98848.03
2018-07-14T11:51:26.317Z,98846.38
2018-07-14T11:53:56.947Z,98831.19
2018-07-14T11:56:27.761Z,98834.64
2018-07-14T11:58:59.502Z,98833.05
2018-07-14T12:01:30.366Z,98833.14
2018-07-14T12:09:00.879Z,98831.97
2018-07-14T12:11:31.496Z,98826.75
2018-07-14T12:14:02.460Z,98822.63
2018-07-14T12:16:33.247Z,98821.75
2018-07-14T12:19:04.502Z,98820.64
2018-07-14T12:21:35.259Z,98817.75
2018-07-14T12:24:07.593Z,98818.06
2018-07-14T12:26:40.754Z,98808.91
2018-07-14T12:29:13.908Z,98801.52
2018-07-14T12:31:45.326Z,98799.92
2018-07-14T12:34:16.379Z,98802.89
2018-07-14T12:36:47.279Z,98796.59
2018-07-14T12:39:18.682Z,98784.31
2018-07-14T12:41:54.513Z,98783.31
2018-07-14T12:44:25.248Z,98783.81
2018-07-14T12:46:56.269Z,98784.73
2018-07-14T12:49:28.530Z,98784.06
2018-07-14T12:51:59.354Z,98784.17
2018-07-14T12:54:30.083Z,98775.70
2018-07-14T12:57:01.403Z,98774.89
2018-07-14T12:59:33.607Z,98777.27
2018-07-14T13:02:06.651Z,98779.43
2018-07-14T13:04:38.273Z,98773.59
2018-07-14T13:07:10.301Z,98777.25
2018-07-14T13:09:41.876Z,98777.31
2018-07-14T13:12:12.814Z,98766.34
2018-07-14T13:14:44.401Z,98770.69
2018-07-14T13:17:16.047Z,98764.66
2018-07-14T13:19:47.006Z,98761.89
2018-07-14T13:22:17.658Z,98748.67
2018-07-14T13:24:48.174Z,98756.11
2018-07-14T13:27:18.890Z,98756.70
2018-07-14T13:29:49.677Z,98741.74
2018-07-14T13:32:20.354Z,98742.11
2018-07-14T13:34:51.849Z,98737.01
2018-07-14T13:37:24.016Z,98732.91
2018-07-14T13:39:54.077Z,98732.41
2018-07-14T13:42:24.842Z,98736.37
2018-07-14T13:44:56.028Z,98732.81
2018-07-14T13:47:27.392Z,98725.95
2018-07-14T13:49:58.176Z,98710.33
2018-07-14T13:52:29.788Z,98721.52
2018-07-14T13:55:02.193Z,98701.37
2018-07-14T13:57:33.366Z,98701.14
2018-07-14T14:00:04.311Z,98694.55
2018-07-14T14:02:39.620Z,98689.58
2018-07-14T14:05:10.345Z,98684.20
2018-07-14T14:07:41.380Z,98683.66
2018-07-14T14:10:12.932Z,98681.16
2018-07-14T14:12:43.808Z,98675.11
2018-07-14T14:15:15.595Z,98670.50
2018-07-14T14:17:46.246Z,98661.05
2018-07-14T14:20:18.582Z,98660.09
2018-07-14T14:22:49.617Z,98671.81
2018-07-14T14:25:20.446Z,98672.12
2018-07-14T14:27:52.419Z,98678.47
2018-07-14T14:30:23.582Z,98675.70
2018-07-14T14:32:54.948Z,98673.00
2018-07-14T14:35:25.702Z,98667.31
2018-07-14T14:37:56.639Z,98663.09
2018-07-14T14:40:27.547Z,98666.77
2018-07-14T14:42:58.804Z,98668.43
2018-07-14T14:45:30.537Z,98663.66
2018-07-14T14:48:01.896Z,98658.75
2018-07-14T14:50:31.864Z,98659.39
2018-07-14T14:53:03.323Z,98652.63
2018-07-14T14:55:35.283Z,98648.72
2018-07-14T14:58:05.726Z,98655.48
2018-07-14T15:00:36.812Z,98638.24
2018-07-14T15:03:07.952Z,98641.50
2018-07-14T15:05:39.392Z,98641.20
2018-07-14T15:08:10.562Z,98645.59
2018-07-14T15:10:41.995Z,98652.75
2018-07-14T15:13:13.419Z,98642.94
2018-07-14T15:15:43.468Z,98644.87
2018-07-14T15:18:15.305Z,98646.52
2018-07-14T15:20:46.417Z,98641.34
2018-07-14T15:23:17.969Z,98638.19
2018-07-14T15:25:48.057Z,98633.95
2018-07-14T15:28:19.282Z,98638.30
2018-07-14T15:30:50.453Z,98633.58
2018-07-14T15:33:22.895Z,98635.52
2018-07-14T15:35:53.742Z,98635.14
2018-07-14T15:38:24.840Z,98637.91
2018-07-14T15:40:56.774Z,98628.05
2018-07-14T15:43:29.157Z,98626.11
2018-07-14T15:46:00.634Z,98622.82
2018-07-14T15:48:31.337Z,98618.12
2018-07-14T15:51:02.466Z,98612.66
2018-07-14T15:53:33.522Z,98617.12
2018-07-14T15:56:05.270Z,98612.09
2018-07-14T15:58:37.567Z,98608.14
2018-07-14T16:01:08.584Z,98597.72
2018-07-14T16:03:38.856Z,98599.61
2018-07-14T16:06:10.379Z,98603.39
2018-07-14T16:08:41.098Z,98604.27
2018-07-14T16:11:11.907Z,98601.29
2018-07-14T16:13:42.968Z,98601.56
2018-07-14T16:16:13.757Z,98603.83
2018-07-14T16:18:45.153Z,98600.83
2018-07-14T16:21:16.182Z,98599.30
2018-07-14T16:23:47.060Z,98603.81
2018-07-14T16:26:17.642Z,98598.19
2018-07-14T16:28:48.541Z,98605.41
2018-07-14T16:31:19.349Z,98599.88
2018-07-14T16:33:50.165Z,98602.58
2018-07-14T16:36:22.510Z,98599.92
2018-07-14T16:38:54.819Z,98601.19
2018-07-14T16:41:25.360Z,98597.66
2018-07-14T16:43:56.521Z,98607.47
2018-07-14T16:46:28.547Z,98594.50
2018-07-14T16:48:59.278Z,98597.98
2018-07-14T16:51:30.004Z,98596.15
2018-07-14T16:54:02.298Z,98595.70
2018-07-14T16:56:33.470Z,98596.39
2018-07-14T16:59:04.134Z,98605.39
2018-07-14T17:01:34.921Z,98596.26
2018-07-14T17:04:05.896Z,98608.31
2018-07-14T17:06:36.686Z,98605.44
2018-07-14T17:09:08.753Z,98603.48
2018-07-14T17:11:39.386Z,98596.16
2018-07-14T17:14:10.820Z,98605.06
2018-07-14T17:16:41.411Z,98606.87
2018-07-14T17:19:12.266Z,98598.30
2018-07-14T17:21:42.961Z,98605.21
2018-07-14T17:24:14.031Z,98610.33
2018-07-14T17:26:44.490Z,98600.73
2018-07-14T17:29:15.324Z,98599.16
2018-07-14T17:31:46.968Z,98605.09
2018-07-14T17:34:17.230Z,98605.62
2018-07-14T17:36:47.891Z,98597.63
2018-07-14T17:39:19.158Z,98604.20
2018-07-14T17:41:50.581Z,98599.77
2018-07-14T17:44:21.305Z,98600.33
2018-07-14T17:46:52.177Z,98601.98
2018-07-14T17:49:23.507Z,98608.61
2018-07-14T17:51:55.210Z,98604.33
2018-07-14T17:54:26.489Z,98604.63
2018-07-14T17:56:57.141Z,98600.22
2018-07-14T17:59:27.575Z,98602.00
2018-07-14T18:01:58.202Z,98601.54
2018-07-14T18:04:41.579Z,98609.73
2018-07-14T18:07:13.072Z,98610.55
2018-07-14T18:09:43.693Z,98608.88
2018-07-14T18:12:14.663Z,98612.59
2018-07-14T18:14:48.409Z,98616.14
2018-07-14T18:17:19.113Z,98617.83
2018-07-14T18:19:50.969Z,98613.84
2018-07-14T18:22:22.681Z,98618.71
2018-07-14T18:24:53.370Z,98618.80
2018-07-14T18:27:23.953Z,98625.99
2018-07-14T18:29:54.636Z,98630.03
2018-07-14T18:32:25.860Z,98629.53
2018-07-14T18:34:56.662Z,98626.12
2018-07-14T18:37:28.126Z,98623.13
2018-07-14T18:39:59.733Z,98628.27
2018-07-14T18:42:31.184Z,98630.11
2018-07-14T18:45:01.906Z,98636.02
2018-07-14T18:47:32.966Z,98634.04
2018-07-14T18:50:03.663Z,98634.80
2018-07-14T18:52:34.229Z,98644.27
2018-07-14T18:55:04.896Z,98645.02
2018-07-14T18:57:37.222Z,98655.95
2018-07-14T19:00:13.878Z,98654.11
2018-07-14T19:02:44.609Z,98669.01
2018-07-14T19:05:16.867Z,98669.09
2018-07-14T19:07:48.556Z,98672.19
2018-07-14T19:10:20.013Z,98682.77
2018-07-14T19:12:51.948Z,98687.95
2018-07-14T19:15:23.047Z,98692.27
2018-07-14T19:17:54.326Z,98697.17
2018-07-14T19:20:25.181Z,98704.66
2018-07-14T19:22:55.596Z,98704.59
2018-07-14T19:25:26.602Z,98709.09
2018-07-14T19:27:57.689Z,98712.82
2018-07-14T19:30:28.540Z,98719.83
2018-07-14T19:33:00.136Z,98720.50
2018-07-14T19:35:31.000Z,98721.35
2018-07-14T19:38:01.674Z,98730.28
2018-07-14T19:40:33.500Z,98732.59
2018-07-14T19:43:04.738Z,98733.06
2018-07-14T19:45:35.983Z,98739.08
2018-07-14T19:48:06.957Z,98744.00
2018-07-14T19:50:41.709Z,98741.58
2018-07-14T19:53:12.658Z,98744.17
2018-07-14T19:55:43.503Z,98740.84
2018-07-14T19:58:15.707Z,98741.09
2018-07-14T20:00:46.740Z,98745.29
2018-07-14T20:03:17.559Z,98746.90
2018-07-14T20:05:50.168Z,98749.72
2018-07-14T20:08:22.436Z,98745.82
2018-07-14T20:10:55.970Z,98751.32
2018-07-14T20:13:27.645Z,98753.05
2018-07-14T20:15:58.708Z,98750.75
2018-07-14T20:18:31.063Z,98753.94
2018-07-14T20:21:03.291Z,98752.38
2018-07-14T20:23:35.601Z,98753.20
2018-07-14T20:26:06.592Z,98749.31
2018-07-14T20:28:38.159Z,98748.26
2018-07-14T20:31:12.130Z,98747.97
2018-07-14T20:33:43.213Z,98741.27
2018-07-14T20:36:13.787Z,98741.27
2018-07-14T20:38:44.868Z,98740.66
2018-07-14T20:41:20.927Z,98742.17
2018-07-14T20:43:51.960Z,98742.66
2018-07-14T20:46:25.902Z,98743.18
2018-07-14T20:49:02.845Z,98748.98
2018-07-14T20:51:34.985Z,98748.48
2018-07-14T20:54:31.281Z,98743.14
2018-07-14T20:57:17.110Z,98750.77
2018-07-14T20:59:56.684Z,98746.15
2018-07-14T21:02:31.033Z,98746.98
2018-07-14T21:05:02.086Z,98743.51
2018-07-14T21:07:33.797Z,98742.89
2018-07-14T21:10:09.051Z,98738.33
2018-07-14T21:12:39.914Z,98738.73
2018-07-14T21:15:11.116Z,98738.32
2018-07-14T21:17:44.240Z,98740.88
2018-07-14T21:20:14.887Z,98742.54
2018-07-14T21:25:16.230Z,98740.25
2018-07-14T21:27:53.306Z,98736.27
2018-07-14T21:30:24.332Z,98742.49
2018-07-14T21:32:55.427Z,98749.12
2018-07-14T21:35:26.185Z,98758.41
2018-07-14T21:37:57.017Z,98754.78
2018-07-14T21:40:27.751Z,98757.54
2018-07-14T21:42:58.803Z,98752.31
2018-07-14T21:45:31.280Z,98755.20
2018-07-14T21:48:02.034Z,98756.74
2018-07-14T21:50:32.688Z,98754.36
2018-07-14T21:53:04.371Z,98755.16
2018-07-14T21:55:35.262Z,98752.95
2018-07-14T21:58:06.038Z,98750.86
2018-07-14T22:00:42.443Z,98742.09
2018-07-14T22:03:14.160Z,98744.19
2018-07-14T22:05:45.238Z,98749.94
2018-07-14T22:08:16.403Z,98748.28
2018-07-14T22:10:47.520Z,98750.11
2018-07-14T22:13:18.384Z,98737.05
2018-07-14T22:15:49.246Z,98741.79
2018-07-14T22:18:20.288Z,98741.39
2018-07-14T22:20:51.916Z,98738.20
2018-07-14T22:23:22.651Z,98733.34
2018-07-14T22:25:53.526Z,98733.87
2018-07-14T22:28:24.211Z,98726.43
2018-07-14T22:30:54.963Z,98727.83
2018-07-14T22:33:26.298Z,98732.72
2018-07-14T22:35:57.208Z,98731.61
2018-07-14T22:38:30.592Z,98731.81
2018-07-14T22:41:02.159Z,98733.34
2018-07-14T22:43:33.474Z,98734.09
2018-07-14T22:46:04.144Z,98723.16
2018-07-14T22:48:34.961Z,98722.49
2018-07-14T22:51:06.079Z,98723.88
2018-07-14T22:53:36.804Z,98729.58
2018-07-14T22:56:09.198Z,98731.94
2018-07-14T22:58:39.957Z,98729.13
2018-07-14T23:01:10.787Z,98730.16
2018-07-14T23:03:41.838Z,98725.69
2018-07-14T23:06:12.957Z,98736.34
2018-07-14T23:08:43.556Z,98730.77
2018-07-14T23:11:15.335Z,98734.93
2018-07-14T23:13:46.707Z,98730.05
2018-07-14T23:16:17.940Z,98730.23
2018-07-14T23:18:48.763Z,98727.09
2018-07-14T23:21:19.772Z,98732.03
2018-07-14T23:23:50.629Z,98730.66
2018-07-14T23:26:22.163Z,98732.73
2018-07-14T23:28:52.249Z,98729.47
2018-07-14T23:31:23.893Z,98718.39
2018-07-14T23:33:55.296Z,98715.78
2018-07-14T23:36:26.074Z,98717.45
2018-07-14T23:38:56.559Z,98719.19
2018-07-14T23:41:27.063Z,98714.45
2018-07-14T23:43:57.650Z,98713.16
2018-07-14T23:46:27.635Z,98706.74
2018-07-14T23:48:58.185Z,98713.39
2018-07-14T23:51:28.802Z,98709.80
2018-07-14T23:54:00.485Z,98707.86
2018-07-14T23:56:31.027Z,98700.80
2018-07-14T23:59:01.673Z,98698.71
